createdAt,value
2018-02-27T00:01:53.202Z,97036.56
2018-02-27T00:04:19.194Z,97034.80
2018-02-27T00:06:45.341Z,97038.14
2018-02-27T00:09:11.370Z,97036.65
2018-02-27T00:11:37.381Z,97040.72
2018-02-27T00:14:03.457Z,97041.73
2018-02-27T00:16:29.453Z,97015.88
2018-02-27T00:18:55.498Z,97032.50
2018-02-27T00:21:21.517Z,97033.16
2018-02-27T00:23:47.617Z,97031.04
2018-02-27T00:26:13.680Z,97026.38
2018-02-27T00:28:39.708Z,97027.47
2018-02-27T00:31:05.774Z,97028.68
2018-02-27T00:33:31.769Z,97026.88
2018-02-27T00:35:57.770Z,97026.22
2018-02-27T00:38:23.809Z,97027.89
2018-02-27T00:40:49.814Z,97024.56
2018-02-27T00:43:15.818Z,97021.78
2018-02-27T00:45:41.824Z,97016.23
2018-02-27T00:48:07.859Z,97024.45
2018-02-27T00:50:33.890Z,97022.13
2018-02-27T00:52:59.954Z,97021.12
2018-02-27T00:55:26.040Z,97023.05
2018-02-27T00:57:52.044Z,97014.64
2018-02-27T01:00:18.083Z,97014.28
2018-02-27T01:02:44.113Z,97013.47
2018-02-27T01:05:10.165Z,97008.88
2018-02-27T01:07:36.173Z,97010.25
2018-02-27T01:10:02.250Z,97005.58
2018-02-27T01:12:28.202Z,97004.02
2018-02-27T01:14:54.230Z,96995.66
2018-02-27T01:17:20.310Z,96997.34
2018-02-27T01:19:46.298Z,96997.05
2018-02-27T01:22:12.205Z,96993.45
2018-02-27T01:24:38.157Z,96989.22
2018-02-27T01:27:04.165Z,96990.49
2018-02-27T01:29:30.177Z,96993.22
2018-02-27T01:31:56.181Z,96983.42
2018-02-27T01:34:22.238Z,96986.51
2018-02-27T01:36:48.214Z,96977.84
2018-02-27T01:39:14.225Z,96980.28
2018-02-27T01:41:40.262Z,96970.83
2018-02-27T01:44:06.332Z,96973.70
2018-02-27T01:46:32.354Z,96963.02
2018-02-27T01:48:58.369Z,96973.58
2018-02-27T01:51:24.366Z,96965.51
2018-02-27T01:53:50.369Z,96966.56
2018-02-27T01:56:16.478Z,96960.64
2018-02-27T01:58:42.499Z,96965.08
2018-02-27T02:01:08.524Z,96953.77
2018-02-27T02:03:34.565Z,96955.89
2018-02-27T02:06:00.562Z,96950.11
2018-02-27T02:08:26.486Z,96954.13
2018-02-27T02:10:52.534Z,96946.83
2018-02-27T02:13:18.554Z,96946.21
2018-02-27T02:15:44.564Z,96936.98
2018-02-27T02:18:10.602Z,96944.45
2018-02-27T02:20:36.686Z,96942.81
2018-02-27T02:23:02.709Z,96938.25
2018-02-27T02:25:28.680Z,96934.69
2018-02-27T02:27:54.809Z,96936.45
2018-02-27T02:30:20.877Z,96929.52
2018-02-27T02:32:46.948Z,96930.11
2018-02-27T02:35:13.057Z,96923.06
2018-02-27T02:37:39.206Z,96923.61
2018-02-27T02:40:05.255Z,96923.89
2018-02-27T02:42:31.277Z,96922.48
2018-02-27T02:44:57.304Z,96921.23
2018-02-27T02:47:23.354Z,96920.19
2018-02-27T02:49:49.428Z,96917.16
2018-02-27T02:52:16.313Z,96919.78
2018-02-27T02:54:42.293Z,96923.95
2018-02-27T02:57:08.289Z,96920.64
2018-02-27T02:59:34.256Z,96919.25
2018-02-27T03:02:00.278Z,96922.33
2018-02-27T03:04:26.300Z,96922.81
2018-02-27T03:06:52.307Z,96922.56
2018-02-27T03:09:18.342Z,96924.59
2018-02-27T03:11:44.348Z,96917.70
2018-02-27T03:14:10.362Z,96913.48
2018-02-27T03:16:36.390Z,96912.77
2018-02-27T03:19:02.466Z,96911.33
2018-02-27T03:21:28.494Z,96918.23
2018-02-27T03:23:54.503Z,96917.38
2018-02-27T03:26:20.469Z,96906.86
2018-02-27T03:28:46.399Z,96916.67
2018-02-27T03:31:12.409Z,96911.64
2018-02-27T03:33:38.421Z,96909.02
2018-02-27T03:36:04.466Z,96906.30
2018-02-27T03:38:30.470Z,96906.63
2018-02-27T03:40:56.450Z,96903.75
2018-02-27T03:43:22.520Z,96898.17
2018-02-27T03:45:48.542Z,96896.25
2018-02-27T03:48:14.576Z,96892.91
2018-02-27T03:50:40.578Z,96895.03
2018-02-27T03:53:06.613Z,96891.81
2018-02-27T03:55:32.659Z,96890.87
2018-02-27T03:57:58.662Z,96887.94
2018-02-27T04:00:24.696Z,96886.47
2018-02-27T04:02:50.721Z,96885.25
2018-02-27T04:05:16.766Z,96886.47
2018-02-27T04:07:42.769Z,96880.81
2018-02-27T04:10:08.800Z,96882.59
2018-02-27T04:12:34.842Z,96878.30
2018-02-27T04:15:00.826Z,96871.48
2018-02-27T04:17:26.802Z,96876.09
2018-02-27T04:19:52.859Z,96879.79
2018-02-27T04:22:18.968Z,96878.30
2018-02-27T04:24:45.026Z,96880.11
2018-02-27T04:27:11.043Z,96874.02
2018-02-27T04:29:36.977Z,96876.14
2018-02-27T04:32:02.938Z,96877.95
2018-02-27T04:34:29.043Z,96882.56
2018-02-27T04:36:55.062Z,96879.39
2018-02-27T04:39:21.123Z,96875.98
2018-02-27T04:41:47.157Z,96884.74
2018-02-27T04:44:13.150Z,96878.97
2018-02-27T04:46:39.162Z,96880.36
2018-02-27T04:49:05.284Z,96884.37
2018-02-27T04:51:31.381Z,96885.61
2018-02-27T04:53:57.421Z,96887.47
2018-02-27T04:56:23.449Z,96888.70
2018-02-27T04:58:49.525Z,96893.78
2018-02-27T05:01:15.539Z,96901.27
2018-02-27T05:03:41.592Z,96891.35
2018-02-27T05:06:07.658Z,96895.90
2018-02-27T05:08:33.748Z,96891.72
2018-02-27T05:10:59.742Z,96890.68
2018-02-27T05:13:25.833Z,96886.94
2018-02-27T05:15:51.884Z,96881.52
2018-02-27T05:18:17.879Z,96876.82
2018-02-27T05:20:45.235Z,96871.59
2018-02-27T05:23:11.256Z,96872.07
2018-02-27T05:25:37.350Z,96872.19
2018-02-27T05:28:03.404Z,96868.39
2018-02-27T05:30:29.614Z,96870.69
2018-02-27T05:32:55.712Z,96868.96
2018-02-27T05:35:21.815Z,96871.45
2018-02-27T05:37:47.857Z,96870.81
2018-02-27T05:40:13.834Z,96866.98
2018-02-27T05:42:39.877Z,96867.84
2018-02-27T05:45:05.880Z,96863.68
2018-02-27T05:47:31.925Z,96865.34
2018-02-27T05:49:57.990Z,96864.23
2018-02-27T05:52:24.026Z,96865.36
2018-02-27T05:54:50.080Z,96870.23
2018-02-27T05:57:16.056Z,96869.73
2018-02-27T05:59:42.066Z,96874.19
2018-02-27T06:02:08.074Z,96869.25
2018-02-27T06:04:34.053Z,96867.19
2018-02-27T06:07:00.146Z,96872.05
2018-02-27T06:09:26.128Z,96865.11
2018-02-27T06:11:52.194Z,96872.66
2018-02-27T06:14:18.234Z,96863.48
2018-02-27T06:16:44.272Z,96869.36
2018-02-27T06:19:17.357Z,96873.00
2018-02-27T06:21:43.349Z,96872.67
2018-02-27T06:24:09.486Z,96874.04
2018-02-27T06:26:35.474Z,96869.44
2018-02-27T06:29:01.482Z,96872.50
2018-02-27T06:31:27.515Z,96863.13
2018-02-27T06:33:53.570Z,96872.71
2018-02-27T06:36:19.653Z,96868.41
2018-02-27T06:38:45.710Z,96865.39
2018-02-27T06:41:11.732Z,96864.47
2018-02-27T06:43:37.757Z,96866.23
2018-02-27T06:46:03.825Z,96860.09
2018-02-27T06:48:29.894Z,96862.22
2018-02-27T06:50:56.500Z,96864.52
2018-02-27T06:53:22.545Z,96860.30
2018-02-27T06:55:48.674Z,96857.45
2018-02-27T06:58:14.698Z,96859.16
2018-02-27T07:00:40.714Z,96855.42
2018-02-27T07:03:06.923Z,96852.05
2018-02-27T07:05:32.929Z,96856.41
2018-02-27T07:07:59.045Z,96851.14
2018-02-27T07:10:25.066Z,96851.03
2018-02-27T07:12:51.066Z,96855.09
2018-02-27T07:15:17.097Z,96859.02
2018-02-27T07:17:43.121Z,96860.58
2018-02-27T07:20:09.161Z,96859.26
2018-02-27T07:22:35.189Z,96864.66
2018-02-27T07:25:01.234Z,96865.70
2018-02-27T07:27:27.224Z,96858.89
2018-02-27T07:29:53.212Z,96868.03
2018-02-27T07:32:19.223Z,96865.15
2018-02-27T07:34:45.245Z,96866.22
2018-02-27T07:37:11.358Z,96866.50
2018-02-27T07:39:37.416Z,96865.45
2018-02-27T07:42:03.446Z,96859.17
2018-02-27T07:44:29.532Z,96867.60
2018-02-27T07:46:55.549Z,96864.12
2018-02-27T07:49:21.570Z,96868.10
2018-02-27T07:51:47.593Z,96863.06
2018-02-27T07:54:13.567Z,96860.60
2018-02-27T07:56:39.601Z,96856.27
2018-02-27T07:59:05.601Z,96858.88
2018-02-27T08:01:31.642Z,96855.75
2018-02-27T08:03:57.706Z,96854.43
2018-02-27T08:06:23.776Z,96852.06
2018-02-27T08:08:49.862Z,96852.45
2018-02-27T08:11:15.902Z,96849.80
2018-02-27T08:13:41.939Z,96845.49
2018-02-27T08:16:07.944Z,96844.44
2018-02-27T08:18:33.932Z,96843.30
2018-02-27T08:20:59.965Z,96841.90
2018-02-27T08:23:26.020Z,96846.61
2018-02-27T08:25:52.022Z,96851.48
2018-02-27T08:28:18.041Z,96841.64
2018-02-27T08:30:44.118Z,96839.89
2018-02-27T08:33:10.121Z,96836.73
2018-02-27T08:35:36.144Z,96834.03
2018-02-27T08:38:02.154Z,96832.61
2018-02-27T08:40:28.302Z,96834.42
2018-02-27T08:42:54.375Z,96842.36
2018-02-27T08:45:20.407Z,96828.44
2018-02-27T08:47:50.168Z,96830.05
2018-02-27T08:50:16.155Z,96825.65
2018-02-27T08:52:42.190Z,96827.11
2018-02-27T08:55:08.169Z,96827.05
2018-02-27T08:57:34.267Z,96825.20
2018-02-27T09:00:00.325Z,96826.98
2018-02-27T09:02:26.381Z,96817.05
2018-02-27T09:04:52.392Z,96817.14
2018-02-27T09:07:18.473Z,96820.33
2018-02-27T09:09:44.489Z,96813.05
2018-02-27T09:12:10.504Z,96810.72
2018-02-27T09:14:36.489Z,96815.03
2018-02-27T09:17:02.473Z,96815.44
2018-02-27T09:19:28.493Z,96813.18
2018-02-27T09:21:54.537Z,96806.47
2018-02-27T09:24:20.577Z,96810.30
2018-02-27T09:26:46.641Z,96807.41
2018-02-27T09:29:12.750Z,96806.09
2018-02-27T09:31:38.741Z,96806.78
2018-02-27T09:34:04.754Z,96800.80
2018-02-27T09:36:30.799Z,96803.23
2018-02-27T09:38:56.805Z,96799.27
2018-02-27T09:41:22.817Z,96807.63
2018-02-27T09:43:48.826Z,96806.67
2018-02-27T09:46:14.845Z,96798.41
2018-02-27T09:48:40.874Z,96797.24
2018-02-27T09:51:07.706Z,96796.67
2018-02-27T09:53:33.718Z,96795.12
2018-02-27T09:55:59.733Z,96793.63
2018-02-27T09:58:25.786Z,96791.87
2018-02-27T10:00:51.805Z,96794.72
2018-02-27T10:03:17.857Z,96794.84
2018-02-27T10:08:16.602Z,96801.08
2018-02-27T10:10:42.613Z,96797.58
2018-02-27T10:13:08.660Z,96799.74
2018-02-27T10:15:34.637Z,96802.06
2018-02-27T10:18:00.656Z,96800.09
2018-02-27T10:20:26.618Z,96801.67
2018-02-27T10:22:52.721Z,96797.69
2018-02-27T10:25:18.724Z,96791.68
2018-02-27T10:27:44.761Z,96791.25
2018-02-27T10:30:10.810Z,96793.27
2018-02-27T10:32:36.812Z,96792.66
2018-02-27T10:35:03.010Z,96791.37
2018-02-27T10:37:29.006Z,96790.97
2018-02-27T10:39:55.495Z,96788.88
2018-02-27T10:42:21.593Z,96791.44
2018-02-27T10:44:47.610Z,96779.52
2018-02-27T10:47:13.692Z,96783.65
2018-02-27T10:49:40.109Z,96782.30
2018-02-27T10:52:06.094Z,96779.23
2018-02-27T10:54:32.325Z,96785.63
2018-02-27T10:56:58.366Z,96769.73
2018-02-27T10:59:24.415Z,96760.98
2018-02-27T11:01:55.443Z,96761.16
2018-02-27T11:04:21.553Z,96759.40
2018-02-27T11:06:47.570Z,96757.61
2018-02-27T11:09:13.612Z,96750.23
2018-02-27T11:11:39.749Z,96748.72
2018-02-27T11:14:05.821Z,96739.83
2018-02-27T11:16:31.840Z,96744.55
2018-02-27T11:18:58.006Z,96743.29
2018-02-27T11:21:23.992Z,96740.30
2018-02-27T11:23:50.065Z,96733.28
2018-02-27T11:26:16.143Z,96736.58
2018-02-27T11:28:42.184Z,96732.52
2018-02-27T11:31:08.234Z,96733.44
2018-02-27T11:33:34.261Z,96733.23
2018-02-27T11:36:00.304Z,96734.16
2018-02-27T11:38:26.290Z,96737.02
2018-02-27T11:40:52.343Z,96735.64
2018-02-27T11:43:18.378Z,96731.45
2018-02-27T11:45:44.317Z,96736.72
2018-02-27T11:48:10.358Z,96732.45
2018-02-27T11:50:36.381Z,96734.55
2018-02-27T11:53:02.461Z,96736.57
2018-02-27T11:55:28.468Z,96729.37
2018-02-27T11:57:54.476Z,96726.34
2018-02-27T12:00:20.527Z,96725.45
2018-02-27T12:02:46.522Z,96720.95
2018-02-27T12:05:12.529Z,96726.08
2018-02-27T12:07:38.520Z,96715.30
2018-02-27T12:10:04.533Z,96721.47
2018-02-27T12:12:30.606Z,96718.49
2018-02-27T12:14:56.562Z,96718.25
2018-02-27T12:17:22.596Z,96714.34
2018-02-27T12:19:48.601Z,96708.78
2018-02-27T12:22:14.657Z,96714.81
2018-02-27T12:24:40.639Z,96707.72
2018-02-27T12:27:06.681Z,96714.35
2018-02-27T12:29:32.678Z,96702.52
2018-02-27T12:31:59.811Z,96716.23
2018-02-27T12:34:25.852Z,96717.64
2018-02-27T12:36:51.926Z,96708.64
2018-02-27T12:39:17.966Z,96712.09
2018-02-27T12:41:43.944Z,96699.92
2018-02-27T12:44:09.997Z,96696.39
2018-02-27T12:46:36.036Z,96700.95
2018-02-27T12:49:02.074Z,96687.67
2018-02-27T12:51:28.160Z,96692.02
2018-02-27T12:53:54.170Z,96688.09
2018-02-27T12:56:20.216Z,96684.91
2018-02-27T12:58:46.212Z,96682.76
2018-02-27T13:01:12.333Z,96677.76
2018-02-27T13:03:38.349Z,96683.45
2018-02-27T13:06:04.396Z,96673.25
2018-02-27T13:08:30.440Z,96674.66
2018-02-27T13:10:56.432Z,96667.88
2018-02-27T13:13:22.450Z,96668.98
2018-02-27T13:15:48.470Z,96668.23
2018-02-27T13:18:14.551Z,96671.91
2018-02-27T13:20:40.605Z,96667.05
2018-02-27T13:23:06.581Z,96661.77
2018-02-27T13:25:32.640Z,96669.76
2018-02-27T13:27:58.651Z,96662.78
2018-02-27T13:30:24.694Z,96657.33
2018-02-27T13:32:50.714Z,96656.35
2018-02-27T13:35:16.753Z,96660.88
2018-02-27T13:37:42.813Z,96657.91
2018-02-27T13:40:08.806Z,96654.75
2018-02-27T13:42:34.792Z,96654.19
2018-02-27T13:45:00.856Z,96659.86
2018-02-27T13:47:26.898Z,96656.55
2018-02-27T13:49:52.913Z,96657.45
2018-02-27T13:52:19.021Z,96657.45
2018-02-27T13:54:44.973Z,96656.53
2018-02-27T13:57:10.969Z,96653.44
2018-02-27T13:59:36.991Z,96652.80
2018-02-27T14:02:02.970Z,96648.90
2018-02-27T14:04:29.005Z,96643.54
2018-02-27T14:06:55.013Z,96648.05
2018-02-27T14:09:21.048Z,96641.03
2018-02-27T14:11:47.062Z,96642.41
2018-02-27T14:14:13.037Z,96638.52
2018-02-27T14:16:39.059Z,96641.31
2018-02-27T14:19:05.139Z,96640.80
2018-02-27T14:21:31.183Z,96633.05
2018-02-27T14:23:57.273Z,96628.47
2018-02-27T14:26:23.264Z,96636.53
2018-02-27T14:28:49.293Z,96629.08
2018-02-27T14:31:15.356Z,96628.48
2018-02-27T14:33:41.388Z,96620.23
2018-02-27T14:36:07.462Z,96623.70
2018-02-27T14:38:33.530Z,96634.08
2018-02-27T14:40:59.566Z,96621.45
2018-02-27T14:43:25.621Z,96629.59
2018-02-27T14:45:51.697Z,96627.53
2018-02-27T14:48:17.801Z,96628.64
2018-02-27T14:50:43.799Z,96627.09
2018-02-27T14:53:09.806Z,96629.47
2018-02-27T14:55:35.905Z,96628.05
2018-02-27T14:58:02.307Z,96626.42
2018-02-27T15:00:36.054Z,96624.67
2018-02-27T15:03:02.121Z,96624.70
2018-02-27T15:05:28.146Z,96624.14
2018-02-27T15:07:54.145Z,96631.77
2018-02-27T15:10:20.190Z,96630.78
2018-02-27T15:12:46.217Z,96624.45
2018-02-27T15:15:12.234Z,96625.23
2018-02-27T15:17:38.281Z,96633.08
2018-02-27T15:20:04.382Z,96632.84
2018-02-27T15:22:30.433Z,96630.55
2018-02-27T15:24:56.453Z,96643.59
2018-02-27T15:27:22.502Z,96640.77
2018-02-27T15:29:48.545Z,96639.88
2018-02-27T15:32:14.614Z,96647.96
2018-02-27T15:34:40.673Z,96648.08
2018-02-27T15:37:06.681Z,96643.97
2018-02-27T15:39:32.930Z,96643.85
2018-02-27T15:41:58.962Z,96641.77
2018-02-27T15:44:24.984Z,96649.34
2018-02-27T15:46:50.992Z,96649.22
2018-02-27T15:49:17.151Z,96651.59
2018-02-27T15:51:43.178Z,96657.87
2018-02-27T15:54:09.521Z,96662.17
2018-02-27T15:56:35.615Z,96663.17
2018-02-27T15:59:01.639Z,96666.81
2018-02-27T16:01:28.571Z,96664.03
2018-02-27T16:03:54.526Z,96668.97
2018-02-27T16:06:20.536Z,96670.99
2018-02-27T16:08:46.558Z,96682.27
2018-02-27T16:11:12.557Z,96665.44
2018-02-27T16:13:38.562Z,96679.46
2018-02-27T16:16:04.554Z,96678.75
2018-02-27T16:18:30.687Z,96681.70
2018-02-27T16:20:56.705Z,96690.99
2018-02-27T16:23:22.728Z,96685.95
2018-02-27T16:25:48.746Z,96692.24
2018-02-27T16:28:14.772Z,96693.64
2018-02-27T16:30:40.869Z,96698.17
2018-02-27T16:33:06.874Z,96698.42
2018-02-27T16:35:32.882Z,96709.22
2018-02-27T16:37:58.876Z,96707.78
2018-02-27T16:40:24.912Z,96705.43
2018-02-27T16:42:50.966Z,96712.75
2018-02-27T16:45:16.989Z,96715.86
2018-02-27T16:47:43.092Z,96719.55
2018-02-27T16:50:09.053Z,96721.73
2018-02-27T16:52:35.065Z,96728.73
2018-02-27T16:55:01.095Z,96735.05
2018-02-27T16:57:27.144Z,96729.09
2018-02-27T16:59:53.161Z,96738.15
2018-02-27T17:02:19.193Z,96742.00
2018-02-27T17:04:45.240Z,96740.65
2018-02-27T17:07:11.277Z,96742.03
2018-02-27T17:09:37.294Z,96742.95
2018-02-27T17:12:09.409Z,96742.85
2018-02-27T17:14:35.450Z,96751.59
2018-02-27T17:17:01.487Z,96753.21
2018-02-27T17:19:27.503Z,96757.57
2018-02-27T17:21:53.564Z,96762.77
2018-02-27T17:24:19.567Z,96760.55
2018-02-27T17:26:45.591Z,96762.36
2018-02-27T17:29:11.620Z,96762.44
2018-02-27T17:31:37.650Z,96762.78
2018-02-27T17:34:03.754Z,96749.27
2018-02-27T17:36:29.738Z,96762.50
2018-02-27T17:38:55.747Z,96763.50
2018-02-27T17:41:21.780Z,96763.48
2018-02-27T17:43:47.813Z,96763.50
2018-02-27T17:46:13.839Z,96771.98
2018-02-27T17:48:39.890Z,96760.84
2018-02-27T17:51:06.023Z,96756.57
2018-02-27T17:53:32.105Z,96764.06
2018-02-27T17:55:58.120Z,96764.55
2018-02-27T17:58:24.116Z,96758.81
2018-02-27T18:00:50.167Z,96760.36
2018-02-27T18:03:16.189Z,96767.41
2018-02-27T18:05:42.197Z,96764.14
2018-02-27T18:08:08.276Z,96760.59
2018-02-27T18:10:34.299Z,96767.64
2018-02-27T18:13:00.373Z,96764.79
2018-02-27T18:15:26.444Z,96765.37
2018-02-27T18:17:52.402Z,96765.77
2018-02-27T18:20:18.478Z,96774.77
2018-02-27T18:22:44.474Z,96776.35
2018-02-27T18:25:10.645Z,96778.42
2018-02-27T18:27:36.633Z,96768.58
2018-02-27T18:30:02.930Z,96777.53
2018-02-27T18:32:28.974Z,96779.82
2018-02-27T18:34:55.005Z,96777.63
2018-02-27T18:37:21.004Z,96775.97
2018-02-27T18:39:47.033Z,96780.12
2018-02-27T18:42:13.006Z,96778.84
2018-02-27T18:44:39.014Z,96787.91
2018-02-27T18:47:05.022Z,96787.91
2018-02-27T18:49:31.066Z,96788.61
2018-02-27T18:51:57.075Z,96786.41
2018-02-27T18:54:23.094Z,96790.45
2018-02-27T18:56:49.086Z,96793.28
2018-02-27T18:59:15.090Z,96792.09
2018-02-27T19:01:41.089Z,96795.71
2018-02-27T19:04:07.140Z,96793.05
2018-02-27T19:06:33.162Z,96799.45
2018-02-27T19:08:59.197Z,96798.97
2018-02-27T19:11:25.202Z,96799.36
2018-02-27T19:13:51.217Z,96799.02
2018-02-27T19:16:17.232Z,96800.26
2018-02-27T19:18:43.281Z,96801.72
2018-02-27T19:21:09.314Z,96806.35
2018-02-27T19:23:35.316Z,96801.88
2018-02-27T19:26:01.327Z,96799.26
2018-02-27T19:28:27.326Z,96802.31
2018-02-27T19:30:53.343Z,96808.82
2018-02-27T19:33:19.389Z,96808.22
2018-02-27T19:35:45.402Z,96810.94
2018-02-27T19:38:11.480Z,96813.39
2018-02-27T19:40:37.532Z,96818.60
2018-02-27T19:43:03.556Z,96816.97
2018-02-27T19:45:29.581Z,96818.39
2018-02-27T19:47:55.614Z,96821.69
2018-02-27T19:50:21.660Z,96821.88
2018-02-27T19:52:47.688Z,96820.30
2018-02-27T19:55:13.720Z,96822.91
2018-02-27T19:57:39.789Z,96824.04
2018-02-27T20:00:05.799Z,96829.70
2018-02-27T20:02:31.904Z,96826.33
2018-02-27T20:04:58.125Z,96826.62
2018-02-27T20:07:24.168Z,96828.80
2018-02-27T20:09:50.238Z,96839.83
2018-02-27T20:12:16.291Z,96836.74
2018-02-27T20:14:42.337Z,96842.02
2018-02-27T20:17:08.376Z,96839.45
2018-02-27T20:19:34.393Z,96845.83
2018-02-27T20:22:00.329Z,96842.67
2018-02-27T20:24:26.451Z,96844.48
2018-02-27T20:26:52.513Z,96845.67
2018-02-27T20:29:20.582Z,96839.13
2018-02-27T20:31:46.692Z,96848.50
2018-02-27T20:34:12.795Z,96846.71
2018-02-27T20:36:38.753Z,96849.02
2018-02-27T20:39:10.895Z,96850.58
2018-02-27T20:41:37.025Z,96862.44
2018-02-27T20:44:03.063Z,96862.38
2018-02-27T20:46:29.091Z,96858.03
2018-02-27T20:48:55.112Z,96863.95
2018-02-27T20:51:21.142Z,96866.17
2018-02-27T20:53:47.105Z,96868.63
2018-02-27T20:56:13.106Z,96866.98
2018-02-27T20:58:39.253Z,96874.20
2018-02-27T21:01:05.319Z,96874.98
2018-02-27T21:03:31.323Z,96875.13
2018-02-27T21:05:57.318Z,96878.02
2018-02-27T21:08:23.333Z,96870.73
2018-02-27T21:10:50.086Z,96881.39
2018-02-27T21:13:16.517Z,96882.48
2018-02-27T21:15:42.593Z,96877.92
2018-02-27T21:18:08.673Z,96876.67
2018-02-27T21:20:34.800Z,96880.33
2018-02-27T21:23:00.854Z,96872.77
2018-02-27T21:25:26.898Z,96882.80
2018-02-27T21:27:52.977Z,96876.89
2018-02-27T21:30:19.129Z,96873.45
2018-02-27T21:32:45.292Z,96884.41
2018-02-27T21:35:11.392Z,96872.25
2018-02-27T21:37:37.389Z,96873.50
2018-02-27T21:40:03.454Z,96882.19
2018-02-27T21:42:29.443Z,96884.69
2018-02-27T21:44:55.500Z,96882.41
2018-02-27T21:47:21.829Z,96877.69
2018-02-27T21:49:47.855Z,96887.45
2018-02-27T21:52:13.899Z,96884.05
2018-02-27T21:54:39.916Z,96882.95
2018-02-27T21:57:05.982Z,96886.78
2018-02-27T21:59:31.935Z,96877.94
2018-02-27T22:01:57.947Z,96886.05
2018-02-27T22:04:23.996Z,96882.74
2018-02-27T22:06:57.018Z,96878.36
2018-02-27T22:09:23.093Z,96883.63
2018-02-27T22:11:49.129Z,96882.83
2018-02-27T22:14:15.205Z,96875.80
2018-02-27T22:16:41.215Z,96881.28
2018-02-27T22:19:07.202Z,96880.12
2018-02-27T22:21:33.296Z,96883.63
2018-02-27T22:23:59.314Z,96886.69
2018-02-27T22:26:25.409Z,96879.58
2018-02-27T22:28:51.427Z,96894.45
2018-02-27T22:31:17.422Z,96895.05
2018-02-27T22:33:43.448Z,96897.13
2018-02-27T22:36:09.406Z,96902.78
2018-02-27T22:38:35.425Z,96901.59
2018-02-27T22:41:01.453Z,96906.52
2018-02-27T22:43:27.492Z,96907.41
2018-02-27T22:45:53.514Z,96905.45
2018-02-27T22:48:19.580Z,96905.18
2018-02-27T22:50:45.613Z,96909.98
2018-02-27T22:53:11.646Z,96909.98
2018-02-27T22:55:37.732Z,96915.09
2018-02-27T22:58:03.737Z,96916.41
2018-02-27T23:00:38.817Z,96912.33
2018-02-27T23:03:04.850Z,96911.38
2018-02-27T23:05:30.897Z,96909.19
2018-02-27T23:07:56.929Z,96911.23
2018-02-27T23:10:22.953Z,96915.19
2018-02-27T23:12:49.078Z,96907.34
2018-02-27T23:15:15.090Z,96906.16
2018-02-27T23:17:41.097Z,96911.27
2018-02-27T23:20:07.127Z,96910.34
2018-02-27T23:22:33.189Z,96913.39
2018-02-27T23:25:17.478Z,96913.97
2018-02-27T23:27:44.614Z,96914.00
2018-02-27T23:30:11.323Z,96909.30
2018-02-27T23:32:38.702Z,96909.17
2018-02-27T23:35:06.050Z,96914.55
2018-02-27T23:37:32.198Z,96910.98
2018-02-27T23:39:58.252Z,96914.24
2018-02-27T23:42:24.238Z,96911.92
2018-02-27T23:44:50.240Z,96915.55
2018-02-27T23:47:16.253Z,96908.42
2018-02-27T23:49:42.274Z,96912.26
2018-02-27T23:52:08.276Z,96914.27
2018-02-27T23:54:34.365Z,96913.14
2018-02-27T23:57:00.780Z,96917.75
2018-02-27T23:59:26.763Z,96917.67
